< Cyclone 197506 1975 Season Cyclone 197508 >
Cyclone 197507 (ROBYN)
General InformationTrack Information on Google Maps || ResourceGoogle EarthGE AnimationAtom FeedGeoJSON
Detalied Best Track (Time Zone = UTC)
Year Month Day Hour Lat. Long. Pressure (hPa) Wind (kt) Class Image Chart
1975 1 14 00 -11.1 91.1 1004 0 0 -- --
1975 1 14 03 -11.2 91.2 1004 0 0 -- --
1975 1 14 06 -11.4 91.4 1003 0 0 -- --
1975 1 14 09 -11.6 91.5 1003 0 0 -- --
1975 1 14 12 -11.9 91.6 1002 0 0 -- --
1975 1 14 15 -12.2 91.7 1001 0 0 -- --
1975 1 14 18 -12.5 91.8 1000 0 0 -- --
1975 1 14 21 -12.7 91.9 1000 0 0 -- --
1975 1 15 00 -13.1 92.0 999 0 0 -- --
1975 1 15 03 -13.4 92.1 999 0 0 -- --
1975 1 15 06 -13.8 92.0 997 0 0 -- --
1975 1 15 09 -14.1 91.8 995 0 0 -- --
1975 1 15 12 -14.5 91.6 994 0 0 -- --
1975 1 15 15 -14.8 91.3 992 0 0 -- --
1975 1 15 18 -15.1 91.0 991 0 0 -- --
1975 1 15 21 -15.4 90.6 990 0 0 -- --
1975 1 16 00 -15.7 90.3 988 0 0 -- --
1975 1 16 03 -15.9 90.0 987 0 0 -- --
1975 1 16 06 -16.1 89.6 985 0 0 -- --
1975 1 16 09 -16.2 89.1 983 0 0 -- --
1975 1 16 12 -16.3 88.7 981 0 0 -- --
1975 1 16 15 -16.5 88.3 979 0 0 -- --
1975 1 16 18 -16.6 87.8 976 0 0 -- --
1975 1 16 21 -16.5 87.6 974 0 0 -- --
1975 1 17 00 -16.7 87.2 973 0 0 -- --
1975 1 17 03 -16.9 86.6 971 0 0 -- --
1975 1 17 06 -17.1 86.0 968 0 0 -- --
1975 1 17 09 -17.3 85.3 966 0 0 -- --
1975 1 17 12 -17.5 84.7 964 0 0 -- --
1975 1 17 15 -17.7 84.0 966 0 0 -- --
1975 1 17 18 -17.9 83.3 968 0 0 -- --
1975 1 17 21 -18.0 82.5 971 0 0 -- --
1975 1 18 00 -18.2 81.8 973 0 0 -- --
1975 1 18 03 -18.3 81.2 975 0 0 -- --
1975 1 18 06 -18.4 80.5 978 0 0 -- --
1975 1 18 09 -18.5 79.9 980 0 0 -- --
1975 1 18 12 -18.6 79.2 982 0 0 -- --
1975 1 18 15 -18.8 78.5 984 0 0 -- --
1975 1 18 18 -18.9 77.8 985 0 0 -- --
1975 1 18 21 -19.0 77.1 987 0 0 -- --
1975 1 19 00 -19.2 76.4 988 0 0 -- --
< Cyclone 197506 1975 Season Cyclone 197508 >

Help